createdAt,value
2017-05-07T00:00:04.347Z,18.74
2017-05-07T00:01:15.809Z,18.7
2017-05-07T00:01:44.134Z,18.78
2017-05-07T00:02:12.441Z,18.7
2017-05-07T00:02:40.649Z,18.75
2017-05-07T00:03:08.929Z,18.76
2017-05-07T00:03:37.294Z,18.78
2017-05-07T00:04:05.608Z,18.76
2017-05-07T00:04:33.992Z,18.71
2017-05-07T00:05:02.309Z,18.68
2017-05-07T00:05:30.628Z,18.74
2017-05-07T00:05:58.966Z,18.78
2017-05-07T00:07:10.428Z,18.67
2017-05-07T00:07:38.762Z,18.74
2017-05-07T00:08:06.984Z,18.71
2017-05-07T00:08:35.191Z,18.78
2017-05-07T00:09:03.561Z,18.75
2017-05-07T00:09:31.829Z,18.75
2017-05-07T00:10:00.149Z,18.71
2017-05-07T00:10:28.442Z,18.75
2017-05-07T00:10:56.752Z,18.68
2017-05-07T00:11:24.981Z,18.81
2017-05-07T00:11:53.318Z,18.76
2017-05-07T00:13:04.775Z,18.74
2017-05-07T00:13:33.107Z,18.76
2017-05-07T00:14:01.229Z,18.74
2017-05-07T00:14:29.525Z,18.76
2017-05-07T00:14:57.904Z,18.71
2017-05-07T00:15:26.266Z,18.7
2017-05-07T00:15:54.679Z,18.71
2017-05-07T00:16:23.063Z,18.78
2017-05-07T00:16:51.290Z,18.76
2017-05-07T00:17:19.515Z,18.75
2017-05-07T00:17:47.855Z,18.76
2017-05-07T00:18:59.317Z,18.68
2017-05-07T00:19:27.554Z,18.78
2017-05-07T00:19:55.771Z,18.74
2017-05-07T00:20:24.157Z,18.76
2017-05-07T00:20:52.527Z,18.67
2017-05-07T00:21:20.890Z,18.67
2017-05-07T00:21:49.208Z,18.66
2017-05-07T00:22:17.597Z,18.64
2017-05-07T00:22:45.919Z,18.61
2017-05-07T00:23:14.238Z,18.76
2017-05-07T00:23:42.578Z,18.67
2017-05-07T00:24:53.948Z,18.68
2017-05-07T00:25:22.374Z,18.66
2017-05-07T00:25:50.778Z,18.63
2017-05-07T00:26:19.080Z,18.64
2017-05-07T00:26:47.363Z,18.6
2017-05-07T00:27:15.726Z,18.66
2017-05-07T00:27:44.137Z,18.64
2017-05-07T00:28:12.527Z,18.63
2017-05-07T00:28:40.943Z,18.66
2017-05-07T00:29:09.266Z,18.66
2017-05-07T00:29:37.604Z,18.58
2017-05-07T00:30:49.060Z,18.71
2017-05-07T00:31:17.481Z,18.66
2017-05-07T00:31:45.887Z,18.7
2017-05-07T00:32:14.274Z,18.66
2017-05-07T00:32:42.454Z,18.7
2017-05-07T00:33:10.815Z,18.68
2017-05-07T00:33:39.226Z,18.67
2017-05-07T00:34:07.603Z,18.64
2017-05-07T00:34:35.924Z,18.66
2017-05-07T00:35:04.243Z,18.63
2017-05-07T00:35:32.588Z,18.6
2017-05-07T00:36:44.050Z,18.58
2017-05-07T00:37:12.466Z,18.64
2017-05-07T00:37:40.873Z,18.63
2017-05-07T00:38:09.073Z,18.57
2017-05-07T00:38:37.344Z,18.58
2017-05-07T00:39:05.618Z,18.66
2017-05-07T00:39:33.933Z,18.63
2017-05-07T00:40:02.325Z,18.57
2017-05-07T00:40:30.735Z,18.6
2017-05-07T00:40:58.867Z,18.64
2017-05-07T00:41:27.114Z,18.66
2017-05-07T00:42:38.484Z,18.61
2017-05-07T00:43:06.907Z,18.63
2017-05-07T00:43:35.132Z,18.64
2017-05-07T00:44:03.525Z,18.64
2017-05-07T00:44:31.901Z,18.64
2017-05-07T00:45:00.168Z,18.66
2017-05-07T00:45:28.484Z,18.66
2017-05-07T00:45:56.767Z,18.63
2017-05-07T00:46:25.000Z,18.63
2017-05-07T00:46:53.317Z,18.57
2017-05-07T00:47:21.657Z,18.64
2017-05-07T00:48:33.019Z,18.49
2017-05-07T00:49:01.441Z,18.56
2017-05-07T00:49:29.659Z,18.56
2017-05-07T00:49:58.054Z,18.49
2017-05-07T00:50:26.422Z,18.52
2017-05-07T00:50:54.601Z,18.48
2017-05-07T00:51:23.008Z,18.52
2017-05-07T00:51:51.393Z,18.46
2017-05-07T00:52:19.803Z,18.52
2017-05-07T00:52:48.035Z,18.61
2017-05-07T00:53:16.382Z,18.56
2017-05-07T00:54:27.754Z,18.57
2017-05-07T00:54:56.081Z,18.6
2017-05-07T00:55:24.390Z,18.56
2017-05-07T00:55:52.691Z,18.58
2017-05-07T00:56:21.053Z,18.49
2017-05-07T00:56:49.322Z,18.45
2017-05-07T00:57:17.733Z,18.49
2017-05-07T00:57:46.029Z,18.48
2017-05-07T00:58:14.354Z,18.43
2017-05-07T00:58:42.670Z,18.52
2017-05-07T00:59:11.012Z,18.48
2017-05-07T01:00:22.376Z,18.48
2017-05-07T01:00:50.799Z,18.49
2017-05-07T01:01:19.208Z,18.49
2017-05-07T01:01:47.410Z,18.58
2017-05-07T01:02:15.686Z,18.49
2017-05-07T01:02:43.955Z,18.49
2017-05-07T01:03:12.178Z,18.45
2017-05-07T01:03:40.567Z,18.45
2017-05-07T01:04:08.982Z,18.43
2017-05-07T01:04:37.117Z,18.48
2017-05-07T01:05:05.461Z,18.45
2017-05-07T01:06:16.824Z,18.52
2017-05-07T01:06:45.065Z,18.54
2017-05-07T01:07:13.463Z,18.52
2017-05-07T01:07:41.764Z,18.52
2017-05-07T01:08:10.041Z,18.52
2017-05-07T01:08:38.315Z,18.49
2017-05-07T01:09:06.726Z,18.51
2017-05-07T01:09:35.114Z,18.51
2017-05-07T01:10:03.529Z,18.52
2017-05-07T01:10:31.848Z,18.57
2017-05-07T01:11:00.186Z,18.58
2017-05-07T01:12:11.641Z,18.49
2017-05-07T01:12:40.063Z,18.56
2017-05-07T01:13:08.467Z,18.52
2017-05-07T01:13:36.676Z,18.51
2017-05-07T01:14:05.049Z,18.51
2017-05-07T01:14:33.408Z,18.52
2017-05-07T01:15:01.818Z,18.56
2017-05-07T01:15:30.106Z,18.49
2017-05-07T01:15:58.455Z,18.51
2017-05-07T01:16:26.567Z,18.51
2017-05-07T01:16:54.908Z,18.52
2017-05-07T01:18:06.298Z,18.51
2017-05-07T01:18:34.541Z,18.54
2017-05-07T01:19:02.855Z,18.45
2017-05-07T01:19:31.149Z,18.49
2017-05-07T01:19:59.425Z,18.49
2017-05-07T01:20:27.788Z,18.52
2017-05-07T01:20:56.202Z,18.46
2017-05-07T01:21:24.592Z,18.52
2017-05-07T01:21:52.820Z,18.52
2017-05-07T01:22:21.041Z,18.46
2017-05-07T01:22:49.382Z,18.46
2017-05-07T01:24:00.749Z,18.46
2017-05-07T01:24:29.169Z,18.45
2017-05-07T01:24:57.480Z,18.42
2017-05-07T01:25:25.873Z,18.48
2017-05-07T01:25:54.151Z,18.48
2017-05-07T01:26:22.513Z,18.42
2017-05-07T01:26:50.838Z,18.48
2017-05-07T01:27:19.218Z,18.46
2017-05-07T01:27:47.627Z,18.43
2017-05-07T01:28:15.948Z,18.51
2017-05-07T01:28:44.286Z,18.51
2017-05-07T01:29:55.653Z,18.48
2017-05-07T01:30:23.982Z,18.45
2017-05-07T01:30:52.384Z,18.48
2017-05-07T01:31:20.680Z,18.42
2017-05-07T01:31:48.960Z,18.42
2017-05-07T01:32:17.327Z,18.51
2017-05-07T01:32:45.647Z,18.43
2017-05-07T01:33:14.030Z,18.45
2017-05-07T01:33:42.354Z,18.43
2017-05-07T01:34:10.483Z,18.46
2017-05-07T01:34:38.824Z,18.51
2017-05-07T01:35:50.288Z,18.56
2017-05-07T01:36:18.614Z,18.52
2017-05-07T01:36:46.829Z,18.48
2017-05-07T01:37:15.128Z,18.52
2017-05-07T01:37:43.402Z,18.56
2017-05-07T01:38:11.671Z,18.39
2017-05-07T01:38:39.993Z,18.51
2017-05-07T01:39:08.287Z,18.54
2017-05-07T01:39:36.610Z,18.57
2017-05-07T01:40:04.837Z,18.52
2017-05-07T01:40:33.093Z,18.52
2017-05-07T01:41:44.550Z,18.52
2017-05-07T01:42:12.968Z,18.54
2017-05-07T01:42:41.187Z,18.52
2017-05-07T01:43:09.390Z,18.54
2017-05-07T01:43:37.762Z,18.51
2017-05-07T01:44:06.123Z,18.58
2017-05-07T01:44:34.534Z,18.54
2017-05-07T01:45:02.920Z,18.52
2017-05-07T01:45:31.235Z,18.49
2017-05-07T01:45:59.552Z,18.49
2017-05-07T01:46:27.892Z,18.51
2017-05-07T01:47:39.259Z,18.52
2017-05-07T01:48:07.687Z,18.49
2017-05-07T01:48:35.907Z,18.56
2017-05-07T01:49:04.110Z,18.48
2017-05-07T01:49:32.301Z,18.48
2017-05-07T01:50:00.571Z,18.51
2017-05-07T01:50:28.981Z,18.58
2017-05-07T01:50:57.273Z,18.54
2017-05-07T01:51:25.683Z,18.54
2017-05-07T01:51:54.099Z,18.61
2017-05-07T01:52:22.349Z,18.57
2017-05-07T01:53:33.808Z,18.54
2017-05-07T01:54:02.178Z,18.57
2017-05-07T01:54:30.363Z,18.57
2017-05-07T01:54:58.673Z,18.48
2017-05-07T01:55:27.037Z,18.54
2017-05-07T01:55:55.216Z,18.56
2017-05-07T01:56:23.440Z,18.48
2017-05-07T01:56:51.731Z,18.46
2017-05-07T01:57:20.053Z,18.52
2017-05-07T01:57:48.371Z,18.51
2017-05-07T01:58:16.711Z,18.36
2017-05-07T01:59:28.078Z,18.39
2017-05-07T01:59:56.499Z,18.38
2017-05-07T02:00:24.907Z,18.3
2017-05-07T02:00:53.121Z,18.38
2017-05-07T02:01:21.480Z,18.3
2017-05-07T02:01:49.843Z,18.21
2017-05-07T02:02:18.249Z,18.26
2017-05-07T02:02:46.538Z,18.24
2017-05-07T02:03:14.955Z,18.26
2017-05-07T02:03:42.995Z,18.21
2017-05-07T02:04:11.335Z,18.17
2017-05-07T02:05:22.795Z,18.13
2017-05-07T02:05:51.032Z,18.2
2017-05-07T02:06:19.248Z,18.09
2017-05-07T02:06:47.637Z,18.17
2017-05-07T02:07:15.912Z,18.18
2017-05-07T02:07:44.184Z,18.17
2017-05-07T02:08:12.589Z,18.21
2017-05-07T02:08:40.975Z,18.24
2017-05-07T02:09:09.203Z,18.21
2017-05-07T02:09:37.241Z,18.15
2017-05-07T02:10:05.582Z,18.18
2017-05-07T02:11:16.851Z,18.18
2017-05-07T02:11:45.274Z,18.17
2017-05-07T02:12:13.491Z,18.15
2017-05-07T02:12:41.790Z,18.23
2017-05-07T02:13:10.159Z,18.15
2017-05-07T02:13:38.524Z,18.17
2017-05-07T02:14:06.936Z,18.18
2017-05-07T02:14:35.226Z,18.17
2017-05-07T02:15:03.638Z,18.12
2017-05-07T02:15:31.954Z,18.23
2017-05-07T02:16:00.199Z,18.15
2017-05-07T02:17:11.569Z,18.15
2017-05-07T02:17:39.992Z,18.17
2017-05-07T02:18:08.306Z,18.15
2017-05-07T02:18:36.605Z,18.27
2017-05-07T02:19:04.974Z,18.17
2017-05-07T02:19:33.247Z,18.2
2017-05-07T02:20:01.658Z,18.13
2017-05-07T02:20:29.852Z,18.13
2017-05-07T02:20:58.263Z,18.18
2017-05-07T02:21:26.587Z,18.12
2017-05-07T02:21:54.925Z,18.15
2017-05-07T02:23:06.288Z,18.2
2017-05-07T02:23:34.615Z,18.2
2017-05-07T02:24:03.012Z,18.12
2017-05-07T02:24:31.316Z,18.13
2017-05-07T02:24:59.678Z,18.13
2017-05-07T02:25:28.038Z,18.11
2017-05-07T02:25:56.448Z,18.15
2017-05-07T02:26:24.739Z,18.17
2017-05-07T02:26:53.162Z,18.13
2017-05-07T02:27:21.471Z,18.2
2017-05-07T02:27:49.813Z,18.11
2017-05-07T02:29:01.183Z,18.17
2017-05-07T02:29:29.606Z,18.12
2017-05-07T02:29:58.017Z,18.18
2017-05-07T02:30:26.404Z,18.17
2017-05-07T02:30:54.775Z,18.17
2017-05-07T02:31:23.138Z,18.15
2017-05-07T02:31:51.450Z,18.13
2017-05-07T02:32:19.838Z,18.15
2017-05-07T02:32:48.153Z,18.15
2017-05-07T02:33:16.566Z,18.13
2017-05-07T02:33:44.908Z,18.2
2017-05-07T02:34:56.365Z,18.11
2017-05-07T02:35:24.601Z,18.18
2017-05-07T02:35:52.727Z,18.15
2017-05-07T02:36:21.029Z,18.18
2017-05-07T02:36:49.298Z,18.09
2017-05-07T02:37:17.568Z,18.08
2017-05-07T02:37:45.885Z,18.18
2017-05-07T02:38:14.087Z,18.13
2017-05-07T02:38:42.508Z,18.11
2017-05-07T02:39:10.824Z,18.02
2017-05-07T02:39:39.161Z,18.12
2017-05-07T02:40:50.623Z,18.11
2017-05-07T02:41:19.046Z,18.17
2017-05-07T02:41:47.450Z,18.13
2017-05-07T02:42:15.842Z,18.17
2017-05-07T02:42:44.122Z,18.15
2017-05-07T02:43:12.296Z,18.11
2017-05-07T02:43:40.704Z,18.13
2017-05-07T02:44:09.082Z,18.13
2017-05-07T02:44:37.404Z,18.11
2017-05-07T02:45:05.639Z,18.09
2017-05-07T02:45:33.980Z,18.13
2017-05-07T02:46:45.438Z,18.11
2017-05-07T02:47:13.676Z,18.13
2017-05-07T02:47:42.075Z,18.12
2017-05-07T02:48:10.283Z,18.13
2017-05-07T02:48:38.566Z,18.15
2017-05-07T02:49:06.932Z,18.13
2017-05-07T02:49:35.253Z,18.11
2017-05-07T02:50:03.572Z,18.01
2017-05-07T02:50:31.872Z,18.05
2017-05-07T02:51:00.288Z,18.03
2017-05-07T02:51:28.625Z,18.03
2017-05-07T02:52:39.899Z,18.05
2017-05-07T02:53:08.320Z,18.02
2017-05-07T02:53:36.731Z,17.99
2017-05-07T02:54:05.027Z,18.02
2017-05-07T02:54:33.310Z,18.08
2017-05-07T02:55:01.677Z,18.06
2017-05-07T02:55:29.995Z,18.06
2017-05-07T02:55:58.290Z,18.06
2017-05-07T02:56:26.700Z,18.06
2017-05-07T02:56:54.928Z,18.06
2017-05-07T02:57:23.267Z,18.05
2017-05-07T02:58:34.636Z,17.99
2017-05-07T02:59:03.062Z,18.03
2017-05-07T02:59:31.375Z,17.97
2017-05-07T02:59:59.584Z,18.03
2017-05-07T03:00:27.680Z,17.99
2017-05-07T03:00:55.946Z,18.02
2017-05-07T03:01:24.364Z,18.02
2017-05-07T03:01:52.748Z,18.03
2017-05-07T03:02:21.068Z,18.01
2017-05-07T03:02:49.485Z,17.93
2017-05-07T03:03:17.828Z,17.99
2017-05-07T03:04:29.195Z,17.96
2017-05-07T03:04:57.616Z,17.96
2017-05-07T03:05:25.927Z,17.94
2017-05-07T03:05:54.232Z,17.94
2017-05-07T03:06:22.508Z,18.02
2017-05-07T03:06:50.873Z,18.08
2017-05-07T03:07:19.194Z,17.96
2017-05-07T03:07:47.571Z,18.02
2017-05-07T03:08:15.988Z,17.97
2017-05-07T03:08:44.214Z,18.01
2017-05-07T03:09:12.369Z,17.99
2017-05-07T03:10:23.737Z,18.05
2017-05-07T03:10:52.061Z,18.02
2017-05-07T03:11:20.461Z,17.9
2017-05-07T03:11:48.763Z,18.01
2017-05-07T03:12:17.131Z,17.93
2017-05-07T03:12:45.402Z,17.94
2017-05-07T03:13:13.818Z,17.94
2017-05-07T03:13:42.197Z,17.96
2017-05-07T03:14:10.610Z,17.94
2017-05-07T03:14:38.922Z,17.96
2017-05-07T03:15:07.172Z,17.94
2017-05-07T03:16:18.634Z,17.97
2017-05-07T03:16:47.054Z,17.91
2017-05-07T03:17:15.367Z,17.94
2017-05-07T03:17:43.665Z,17.97
2017-05-07T03:18:11.935Z,17.96
2017-05-07T03:18:40.300Z,17.99
2017-05-07T03:19:08.624Z,18.01
2017-05-07T03:19:36.825Z,17.93
2017-05-07T03:20:05.147Z,17.96
2017-05-07T03:20:33.555Z,18.06
2017-05-07T03:21:01.904Z,17.99
2017-05-07T03:22:13.362Z,17.99
2017-05-07T03:22:41.691Z,17.96
2017-05-07T03:23:09.815Z,17.96
2017-05-07T03:23:38.116Z,18.01
2017-05-07T03:24:06.489Z,17.97
2017-05-07T03:24:34.758Z,17.99
2017-05-07T03:25:03.175Z,18.01
2017-05-07T03:25:31.469Z,17.96
2017-05-07T03:25:59.884Z,17.93
2017-05-07T03:26:28.203Z,17.94
2017-05-07T03:26:56.544Z,17.94
2017-05-07T03:28:07.816Z,17.94
2017-05-07T03:28:36.147Z,17.86
2017-05-07T03:29:04.368Z,17.97
2017-05-07T03:29:32.571Z,17.94
2017-05-07T03:30:00.846Z,17.9
2017-05-07T03:30:29.212Z,17.93
2017-05-07T03:30:57.527Z,17.9
2017-05-07T03:31:25.917Z,17.9
2017-05-07T03:31:54.237Z,17.9
2017-05-07T03:32:22.555Z,17.86
2017-05-07T03:32:50.895Z,17.88
2017-05-07T03:34:02.268Z,17.86
2017-05-07T03:34:30.612Z,17.78
2017-05-07T03:34:58.931Z,17.81
2017-05-07T03:35:27.317Z,17.81
2017-05-07T03:35:55.693Z,17.84
2017-05-07T03:36:23.960Z,17.71
2017-05-07T03:36:52.373Z,17.81
2017-05-07T03:37:20.762Z,17.69
2017-05-07T03:37:49.174Z,17.68
2017-05-07T03:38:17.489Z,17.68
2017-05-07T03:38:45.742Z,17.62
2017-05-07T03:39:57.198Z,17.78
2017-05-07T03:40:25.620Z,17.73
2017-05-07T03:40:53.837Z,17.79
2017-05-07T03:41:22.136Z,17.73
2017-05-07T03:41:50.501Z,17.69
2017-05-07T03:42:18.770Z,17.71
2017-05-07T03:42:47.182Z,17.69
2017-05-07T03:43:15.571Z,17.69
2017-05-07T03:43:43.978Z,17.68
2017-05-07T03:44:12.300Z,17.69
2017-05-07T03:44:40.555Z,17.73
2017-05-07T03:45:52.010Z,17.84
2017-05-07T03:46:20.241Z,17.71
2017-05-07T03:46:48.557Z,17.71
2017-05-07T03:47:16.761Z,17.63
2017-05-07T03:47:45.045Z,17.69
2017-05-07T03:48:13.216Z,17.66
2017-05-07T03:48:41.632Z,17.68
2017-05-07T03:49:09.912Z,17.75
2017-05-07T03:49:38.323Z,17.68
2017-05-07T03:50:06.644Z,17.68
2017-05-07T03:50:34.895Z,17.62
2017-05-07T03:51:46.355Z,17.63
2017-05-07T03:52:14.777Z,17.69
2017-05-07T03:52:43.089Z,17.59
2017-05-07T03:53:11.411Z,17.68
2017-05-07T03:53:39.695Z,17.56
2017-05-07T03:54:08.059Z,17.62
2017-05-07T03:54:36.460Z,17.65
2017-05-07T03:55:04.754Z,17.71
2017-05-07T03:55:32.975Z,17.73
2017-05-07T03:56:01.296Z,17.62
2017-05-07T03:56:29.625Z,17.71
2017-05-07T03:57:41.091Z,17.68
2017-05-07T03:58:09.424Z,17.62
2017-05-07T03:58:37.731Z,17.68
2017-05-07T03:59:06.027Z,17.73
2017-05-07T03:59:34.301Z,17.69
2017-05-07T04:00:02.665Z,17.71
2017-05-07T04:00:30.980Z,17.71
2017-05-07T04:00:59.272Z,17.63
2017-05-07T04:01:27.597Z,17.59
2017-05-07T04:01:55.917Z,17.68
2017-05-07T04:02:24.261Z,17.65
2017-05-07T04:03:35.719Z,17.62
2017-05-07T04:04:03.959Z,17.59
2017-05-07T04:04:32.171Z,17.68
2017-05-07T04:05:00.373Z,17.65
2017-05-07T04:05:28.739Z,17.65
2017-05-07T04:05:56.918Z,17.66
2017-05-07T04:06:25.327Z,17.69
2017-05-07T04:06:53.708Z,17.68
2017-05-07T04:07:22.037Z,17.69
2017-05-07T04:07:50.446Z,17.62
2017-05-07T04:08:18.784Z,17.72
2017-05-07T04:09:30.057Z,17.65
2017-05-07T04:09:58.471Z,17.68
2017-05-07T04:10:26.780Z,17.65
2017-05-07T04:10:55.086Z,17.66
2017-05-07T04:11:23.447Z,17.65
2017-05-07T04:11:51.812Z,17.62
2017-05-07T04:12:20.216Z,17.71
2017-05-07T04:12:48.599Z,17.59
2017-05-07T04:13:17.014Z,17.68
2017-05-07T04:13:45.426Z,17.65
2017-05-07T04:14:13.590Z,17.63
2017-05-07T04:15:25.026Z,17.63
2017-05-07T04:15:53.437Z,17.57
2017-05-07T04:16:21.741Z,17.69
2017-05-07T04:16:50.120Z,17.69
2017-05-07T04:17:18.497Z,17.72
2017-05-07T04:17:46.764Z,17.71
2017-05-07T04:18:15.052Z,17.68
2017-05-07T04:18:43.336Z,17.68
2017-05-07T04:19:11.656Z,17.69
2017-05-07T04:19:40.068Z,17.72
2017-05-07T04:20:08.325Z,17.65
2017-05-07T04:21:19.762Z,17.72
2017-05-07T04:21:48.078Z,17.72
2017-05-07T04:22:16.378Z,17.68
2017-05-07T04:22:44.756Z,17.71
2017-05-07T04:23:13.035Z,17.66
2017-05-07T04:23:41.304Z,17.57
2017-05-07T04:24:09.601Z,17.71
2017-05-07T04:24:37.890Z,17.69
2017-05-07T04:25:06.310Z,17.69
2017-05-07T04:25:34.631Z,17.65
2017-05-07T04:26:02.891Z,17.66
2017-05-07T04:27:14.325Z,17.68
2017-05-07T04:27:42.736Z,17.63
2017-05-07T04:28:10.943Z,17.66
2017-05-07T04:28:39.326Z,17.66
2017-05-07T04:29:07.692Z,17.62
2017-05-07T04:29:36.055Z,17.65
2017-05-07T04:30:04.351Z,17.69
2017-05-07T04:30:32.727Z,17.68
2017-05-07T04:31:01.137Z,17.65
2017-05-07T04:31:29.455Z,17.68
2017-05-07T04:31:57.807Z,17.69
2017-05-07T04:33:09.148Z,17.63
2017-05-07T04:33:37.576Z,17.66
2017-05-07T04:34:05.977Z,17.56
2017-05-07T04:34:34.356Z,17.62
2017-05-07T04:35:02.722Z,17.69
2017-05-07T04:35:31.086Z,17.68
2017-05-07T04:35:59.493Z,17.65
2017-05-07T04:36:27.879Z,17.68
2017-05-07T04:36:56.299Z,17.65
2017-05-07T04:37:24.714Z,17.59
2017-05-07T04:37:52.966Z,17.68
2017-05-07T04:39:04.413Z,17.65
2017-05-07T04:39:32.837Z,17.75
2017-05-07T04:40:01.145Z,17.69
2017-05-07T04:40:29.434Z,17.73
2017-05-07T04:40:57.712Z,17.71
2017-05-07T04:41:25.979Z,17.69
2017-05-07T04:41:54.388Z,17.71
2017-05-07T04:42:22.674Z,17.68
2017-05-07T04:42:50.999Z,17.69
2017-05-07T04:43:19.232Z,17.76
2017-05-07T04:43:47.484Z,17.66
2017-05-07T04:44:58.658Z,17.68
2017-05-07T04:45:26.983Z,17.66
2017-05-07T04:45:55.382Z,17.68
2017-05-07T04:46:23.762Z,17.69
2017-05-07T04:46:52.134Z,17.71
2017-05-07T04:47:20.407Z,17.75
2017-05-07T04:47:48.721Z,17.65
2017-05-07T04:48:17.019Z,17.69
2017-05-07T04:48:45.434Z,17.69
2017-05-07T04:49:13.853Z,17.71
2017-05-07T04:49:42.193Z,17.69
2017-05-07T04:50:53.644Z,17.76
2017-05-07T04:51:22.071Z,17.69
2017-05-07T04:51:50.468Z,17.69
2017-05-07T04:52:18.849Z,17.71
2017-05-07T04:52:47.220Z,17.75
2017-05-07T04:53:15.580Z,17.71
2017-05-07T04:53:43.902Z,17.66
2017-05-07T04:54:12.105Z,17.71
2017-05-07T04:54:40.522Z,17.65
2017-05-07T04:55:08.849Z,17.69
2017-05-07T04:55:36.922Z,17.68
2017-05-07T04:56:48.364Z,17.71
2017-05-07T04:57:16.693Z,17.69
2017-05-07T04:57:45.095Z,17.73
2017-05-07T04:58:13.472Z,17.68
2017-05-07T04:58:41.655Z,17.69
2017-05-07T04:59:09.932Z,17.72
2017-05-07T04:59:38.348Z,17.68
2017-05-07T05:00:06.636Z,17.75
2017-05-07T05:00:35.048Z,17.68
2017-05-07T05:01:03.369Z,17.69
2017-05-07T05:01:31.707Z,17.75
2017-05-07T05:02:43.153Z,17.68
2017-05-07T05:03:11.395Z,17.68
2017-05-07T05:03:39.803Z,17.73
2017-05-07T05:04:08.178Z,17.63
2017-05-07T05:04:36.176Z,17.66
2017-05-07T05:05:04.446Z,17.69
2017-05-07T05:05:32.769Z,17.68
2017-05-07T05:06:01.063Z,17.65
2017-05-07T05:06:29.385Z,17.66
2017-05-07T05:06:57.797Z,17.73
2017-05-07T05:07:26.135Z,17.71
2017-05-07T05:08:37.576Z,17.69
2017-05-07T05:09:05.815Z,17.71
2017-05-07T05:09:34.126Z,17.73
2017-05-07T05:10:02.407Z,17.66
2017-05-07T05:10:30.771Z,17.71
2017-05-07T05:10:59.042Z,17.69
2017-05-07T05:11:27.457Z,17.69
2017-05-07T05:11:55.655Z,17.66
2017-05-07T05:12:23.980Z,17.73
2017-05-07T05:12:52.397Z,17.68
2017-05-07T05:13:20.643Z,17.72
2017-05-07T05:14:32.086Z,17.71
2017-05-07T05:15:00.423Z,17.69
2017-05-07T05:15:28.729Z,17.75
2017-05-07T05:15:57.012Z,17.69
2017-05-07T05:16:25.382Z,17.73
2017-05-07T05:16:53.747Z,17.71
2017-05-07T05:17:22.066Z,17.69
2017-05-07T05:17:50.255Z,17.68
2017-05-07T05:18:18.581Z,17.65
2017-05-07T05:18:46.998Z,17.71
2017-05-07T05:19:15.335Z,17.73
2017-05-07T05:20:26.681Z,17.66
2017-05-07T05:20:55.105Z,17.69
2017-05-07T05:21:23.412Z,17.75
2017-05-07T05:21:51.700Z,17.69
2017-05-07T05:22:20.072Z,17.68
2017-05-07T05:22:48.433Z,17.65
2017-05-07T05:23:16.850Z,17.71
2017-05-07T05:23:45.142Z,17.68
2017-05-07T05:24:13.462Z,17.73
2017-05-07T05:24:41.785Z,17.71
2017-05-07T05:25:10.124Z,17.81
2017-05-07T05:26:21.479Z,17.65
2017-05-07T05:26:49.720Z,17.83
2017-05-07T05:27:18.128Z,17.69
2017-05-07T05:27:46.411Z,17.71
2017-05-07T05:28:14.597Z,17.72
2017-05-07T05:28:42.867Z,17.71
2017-05-07T05:29:11.187Z,17.63
2017-05-07T05:29:39.384Z,17.71
2017-05-07T05:30:07.611Z,17.71
2017-05-07T05:30:36.025Z,17.69
2017-05-07T05:31:04.369Z,17.69
2017-05-07T05:32:15.816Z,17.68
2017-05-07T05:32:44.086Z,17.73
2017-05-07T05:33:12.491Z,17.68
2017-05-07T05:33:40.872Z,17.69
2017-05-07T05:34:08.963Z,17.72
2017-05-07T05:34:37.139Z,17.69
2017-05-07T05:35:05.544Z,17.75
2017-05-07T05:35:33.932Z,17.66
2017-05-07T05:36:02.161Z,17.79
2017-05-07T05:36:30.573Z,17.63
2017-05-07T05:36:58.910Z,17.65
2017-05-07T05:38:10.354Z,17.66
2017-05-07T05:38:38.779Z,17.68
2017-05-07T05:39:07.177Z,17.63
2017-05-07T05:39:35.463Z,17.73
2017-05-07T05:40:03.646Z,17.68
2017-05-07T05:40:32.017Z,17.69
2017-05-07T05:41:00.333Z,17.73
2017-05-07T05:41:28.718Z,17.65
2017-05-07T05:41:57.130Z,17.73
2017-05-07T05:42:25.452Z,17.66
2017-05-07T05:42:53.797Z,17.68
2017-05-07T05:44:05.158Z,17.71
2017-05-07T05:44:33.392Z,17.66
2017-05-07T05:45:01.708Z,17.75
2017-05-07T05:45:30.086Z,17.71
2017-05-07T05:45:58.457Z,17.75
2017-05-07T05:46:26.818Z,17.69
2017-05-07T05:46:55.226Z,17.73
2017-05-07T05:47:23.515Z,17.78
2017-05-07T05:47:51.928Z,17.68
2017-05-07T05:48:20.246Z,17.68
2017-05-07T05:48:48.585Z,17.71
2017-05-07T05:50:00.030Z,17.75
2017-05-07T05:50:28.455Z,17.66
2017-05-07T05:50:56.761Z,17.72
2017-05-07T05:51:24.950Z,17.68
2017-05-07T05:51:53.320Z,17.71
2017-05-07T05:52:21.590Z,17.71
2017-05-07T05:52:49.911Z,17.66
2017-05-07T05:53:18.290Z,17.72
2017-05-07T05:53:46.704Z,17.75
2017-05-07T05:54:15.025Z,17.71
2017-05-07T05:54:43.365Z,17.71
2017-05-07T05:55:54.618Z,17.69
2017-05-07T05:56:22.947Z,17.69
2017-05-07T05:56:51.261Z,17.63
2017-05-07T05:57:19.548Z,17.69
2017-05-07T05:57:47.832Z,17.66
2017-05-07T05:58:16.102Z,17.69
2017-05-07T05:58:44.335Z,17.68
2017-05-07T05:59:12.711Z,17.68
2017-05-07T05:59:41.127Z,17.72
2017-05-07T06:00:09.532Z,17.69
2017-05-07T06:00:37.872Z,17.68
2017-05-07T06:01:49.320Z,17.72
2017-05-07T06:02:17.656Z,17.63
2017-05-07T06:02:45.964Z,17.69
2017-05-07T06:03:14.248Z,17.69
2017-05-07T06:03:42.530Z,17.69
2017-05-07T06:04:10.890Z,17.69
2017-05-07T06:04:39.302Z,17.71
2017-05-07T06:05:07.688Z,17.72
2017-05-07T06:05:36.105Z,17.73
2017-05-07T06:06:04.332Z,17.72
2017-05-07T06:06:32.674Z,17.71
2017-05-07T06:07:44.025Z,17.68
2017-05-07T06:08:12.354Z,17.71
2017-05-07T06:08:40.580Z,17.71
2017-05-07T06:09:08.959Z,17.69
2017-05-07T06:09:37.327Z,17.68
2017-05-07T06:10:05.593Z,17.65
2017-05-07T06:10:34.003Z,17.68
2017-05-07T06:11:02.385Z,17.68
2017-05-07T06:11:30.709Z,17.73
2017-05-07T06:11:59.125Z,17.68
2017-05-07T06:12:27.464Z,17.76
2017-05-07T06:13:38.910Z,17.65
2017-05-07T06:14:07.333Z,17.72
2017-05-07T06:14:35.729Z,17.68
2017-05-07T06:15:04.107Z,17.68
2017-05-07T06:15:32.479Z,17.66
2017-05-07T06:16:00.748Z,17.65
2017-05-07T06:16:29.158Z,17.63
2017-05-07T06:16:57.544Z,17.59
2017-05-07T06:17:25.956Z,17.66
2017-05-07T06:17:54.277Z,17.68
2017-05-07T06:18:22.523Z,17.65
2017-05-07T06:19:33.969Z,17.69
2017-05-07T06:20:02.301Z,17.57
2017-05-07T06:20:30.516Z,17.73
2017-05-07T06:20:58.804Z,17.69
2017-05-07T06:21:26.990Z,17.63
2017-05-07T06:21:55.349Z,17.65
2017-05-07T06:22:23.672Z,17.68
2017-05-07T06:22:52.057Z,17.66
2017-05-07T06:23:20.470Z,17.63
2017-05-07T06:23:48.792Z,17.68
2017-05-07T06:24:17.131Z,17.69
2017-05-07T06:25:28.481Z,17.68
2017-05-07T06:25:56.943Z,17.66
2017-05-07T06:26:25.119Z,17.69
2017-05-07T06:26:53.849Z,17.71
2017-05-07T06:27:22.038Z,17.65
2017-05-07T06:27:50.401Z,17.65
2017-05-07T06:28:18.621Z,17.62
2017-05-07T06:28:47.001Z,17.71
2017-05-07T06:29:15.419Z,17.71
2017-05-07T06:29:43.741Z,17.71
2017-05-07T06:30:11.897Z,17.69
2017-05-07T06:31:23.338Z,17.69
2017-05-07T06:31:51.765Z,17.54
2017-05-07T06:32:20.164Z,17.71
2017-05-07T06:32:48.360Z,17.65
2017-05-07T06:33:16.726Z,17.71
2017-05-07T06:33:45.088Z,17.62
2017-05-07T06:34:13.500Z,17.65
2017-05-07T06:34:41.798Z,17.71
2017-05-07T06:35:10.214Z,17.68
2017-05-07T06:35:38.533Z,17.66
2017-05-07T06:36:06.901Z,17.63
2017-05-07T06:37:18.316Z,17.63
2017-05-07T06:37:46.651Z,17.56
2017-05-07T06:38:15.054Z,17.54
2017-05-07T06:38:43.329Z,17.52
2017-05-07T06:39:11.516Z,17.53
2017-05-07T06:39:39.787Z,17.56
2017-05-07T06:40:08.197Z,17.54
2017-05-07T06:40:36.577Z,17.54
2017-05-07T06:41:04.804Z,17.46
2017-05-07T06:41:33.032Z,17.53
2017-05-07T06:42:01.375Z,17.49
2017-05-07T06:43:12.730Z,17.47
2017-05-07T06:43:41.156Z,17.39
2017-05-07T06:44:09.557Z,17.43
2017-05-07T06:44:37.839Z,17.41
2017-05-07T06:45:06.031Z,17.41
2017-05-07T06:45:34.399Z,17.45
2017-05-07T06:46:02.813Z,17.35
2017-05-07T06:46:31.195Z,17.41
2017-05-07T06:46:59.517Z,17.54
2017-05-07T06:47:27.934Z,17.39
2017-05-07T06:47:56.271Z,17.35
2017-05-07T06:49:07.628Z,17.43
2017-05-07T06:49:35.866Z,17.38
2017-05-07T06:50:04.180Z,17.38
2017-05-07T06:50:32.367Z,17.37
2017-05-07T06:51:00.643Z,17.41
2017-05-07T06:51:28.816Z,17.37
2017-05-07T06:51:57.226Z,17.41
2017-05-07T06:52:25.608Z,17.43
2017-05-07T06:52:53.926Z,17.43
2017-05-07T06:53:22.338Z,17.35
2017-05-07T06:53:50.668Z,17.43
2017-05-07T06:55:02.024Z,17.39
2017-05-07T06:55:30.353Z,17.39
2017-05-07T06:55:58.759Z,17.41